createdAt,value
2022-11-17T00:00:44.453Z,83.40
2022-11-17T00:03:14.927Z,82.65
2022-11-17T00:05:42.999Z,83.40
2022-11-17T00:08:10.911Z,83.38
2022-11-17T00:10:40.222Z,83.22
2022-11-17T00:13:27.573Z,82.91
2022-11-17T00:15:55.531Z,82.81
2022-11-17T00:18:41.207Z,83.52
2022-11-17T00:21:28.241Z,83.80
2022-11-17T00:23:56.676Z,83.42
2022-11-17T00:26:27.804Z,83.15
2022-11-17T00:28:57.435Z,83.52
2022-11-17T00:31:44.641Z,82.42
2022-11-17T00:34:15.276Z,83.31
2022-11-17T00:36:45.288Z,83.89
2022-11-17T00:39:14.256Z,82.83
2022-11-17T00:41:43.679Z,82.87
2022-11-17T00:44:11.962Z,83.29
2022-11-17T00:46:40.688Z,83.34
2022-11-17T00:49:10.008Z,83.28
2022-11-17T00:51:38.676Z,82.66
2022-11-17T00:54:07.529Z,82.91
2022-11-17T00:56:35.585Z,82.84
2022-11-17T00:59:04.996Z,82.48
2022-11-17T01:01:32.946Z,82.66
2022-11-17T01:04:04.138Z,82.23
2022-11-17T01:06:34.764Z,82.72
2022-11-17T01:09:04.221Z,82.40
2022-11-17T01:11:32.600Z,82.41
2022-11-17T01:14:01.927Z,82.61
2022-11-17T01:16:32.837Z,81.83
2022-11-17T01:19:03.195Z,82.24
2022-11-17T01:21:32.514Z,82.97
2022-11-17T01:24:02.457Z,83.02
2022-11-17T01:26:32.784Z,83.42
2022-11-17T01:29:01.919Z,83.17
2022-11-17T01:31:33.340Z,82.98
2022-11-17T01:34:01.556Z,83.04
2022-11-17T01:36:31.234Z,82.59
2022-11-17T01:38:59.230Z,82.91
2022-11-17T01:41:29.217Z,83.10
2022-11-17T01:43:58.914Z,83.18
2022-11-17T01:46:33.751Z,82.10
2022-11-17T01:49:06.298Z,82.91
2022-11-17T01:51:38.624Z,83.39
2022-11-17T01:54:07.324Z,82.41
2022-11-17T01:56:40.333Z,83.12
2022-11-17T01:59:15.416Z,83.00
2022-11-17T02:01:56.472Z,82.41
2022-11-17T02:04:27.202Z,82.47
2022-11-17T02:07:02.385Z,81.89
2022-11-17T02:09:30.610Z,81.67
2022-11-17T02:12:00.064Z,81.25
2022-11-17T02:14:28.124Z,81.42
2022-11-17T02:17:01.028Z,81.23
2022-11-17T02:19:36.782Z,81.25
2022-11-17T02:22:26.888Z,80.48
2022-11-17T02:25:13.649Z,81.74
2022-11-17T02:28:10.539Z,81.03
2022-11-17T02:30:47.375Z,81.67
2022-11-17T02:33:23.974Z,80.89
2022-11-17T02:36:02.328Z,81.01
2022-11-17T02:38:36.286Z,81.14
2022-11-17T02:41:12.826Z,80.87
2022-11-17T02:44:05.867Z,80.90
2022-11-17T02:46:41.565Z,80.32
2022-11-17T02:49:17.702Z,81.15
2022-11-17T02:51:48.788Z,80.96
2022-11-17T02:54:17.424Z,80.00
2022-11-17T02:56:45.523Z,81.05
2022-11-17T02:59:18.002Z,80.81
2022-11-17T03:02:12.373Z,81.14
2022-11-17T03:04:51.787Z,80.99
2022-11-17T03:07:37.446Z,81.51
2022-11-17T03:10:11.567Z,81.51
2022-11-17T03:12:47.354Z,81.62
2022-11-17T03:15:24.893Z,81.64
2022-11-17T03:18:04.104Z,82.31
2022-11-17T03:20:40.524Z,82.51
2022-11-17T03:23:13.665Z,82.50
2022-11-17T03:25:48.436Z,83.16
2022-11-17T03:28:18.573Z,82.07
2022-11-17T03:30:50.330Z,82.81
2022-11-17T03:33:22.522Z,82.13
2022-11-17T03:35:56.277Z,82.57
2022-11-17T03:38:28.454Z,83.20
2022-11-17T03:41:01.520Z,82.51
2022-11-17T03:43:31.777Z,82.22
2022-11-17T03:46:06.832Z,82.32
2022-11-17T03:48:38.608Z,82.49
2022-11-17T03:51:10.219Z,82.67
2022-11-17T03:53:38.710Z,82.18
2022-11-17T03:56:17.090Z,82.26
2022-11-17T03:58:53.556Z,81.87
2022-11-17T04:01:23.889Z,81.73
2022-11-17T04:03:53.010Z,82.06
2022-11-17T04:06:21.019Z,80.65
2022-11-17T04:08:48.989Z,81.25
2022-11-17T04:11:34.749Z,80.81
2022-11-17T04:14:20.062Z,81.29
2022-11-17T04:16:49.612Z,81.68
2022-11-17T04:19:17.524Z,80.86
2022-11-17T04:21:45.516Z,81.19
2022-11-17T04:24:13.372Z,80.95
2022-11-17T04:26:59.014Z,81.42
2022-11-17T04:29:28.412Z,81.24
2022-11-17T04:31:57.823Z,81.37
2022-11-17T04:34:25.668Z,81.29
2022-11-17T04:36:53.822Z,81.72
2022-11-17T04:39:21.835Z,81.52
2022-11-17T04:41:54.559Z,82.60
2022-11-17T04:44:23.922Z,82.45
2022-11-17T04:46:53.794Z,83.04
2022-11-17T04:49:24.726Z,83.35
2022-11-17T04:51:53.715Z,83.14
2022-11-17T04:54:24.495Z,82.44
2022-11-17T04:56:53.243Z,82.29
2022-11-17T04:59:21.206Z,81.85
2022-11-17T05:01:49.275Z,82.63
2022-11-17T05:04:39.656Z,82.50
2022-11-17T05:07:09.574Z,82.35
2022-11-17T05:09:37.863Z,82.67
2022-11-17T05:12:24.073Z,82.94
2022-11-17T05:14:52.357Z,82.75
2022-11-17T05:17:19.272Z,82.98
2022-11-17T05:19:48.598Z,83.20
2022-11-17T05:22:37.293Z,83.10
2022-11-17T05:25:06.106Z,83.04
2022-11-17T05:27:34.345Z,83.24
2022-11-17T05:30:02.350Z,83.01
2022-11-17T05:32:30.334Z,83.58
2022-11-17T05:34:58.216Z,83.85
2022-11-17T05:37:27.576Z,83.48
2022-11-17T05:39:55.437Z,83.67
2022-11-17T05:42:23.368Z,83.98
2022-11-17T05:44:51.309Z,83.44
2022-11-17T05:47:19.304Z,83.77
2022-11-17T05:49:47.352Z,83.86
2022-11-17T05:52:15.334Z,83.84
2022-11-17T05:54:44.623Z,84.23
2022-11-17T05:57:17.883Z,84.46
2022-11-17T05:59:49.554Z,84.80
2022-11-17T06:02:21.664Z,85.18
2022-11-17T06:04:50.078Z,85.75
2022-11-17T06:07:19.136Z,85.92
2022-11-17T06:09:48.790Z,85.61
2022-11-17T06:12:16.861Z,86.73
2022-11-17T06:14:44.766Z,86.86
2022-11-17T06:17:22.198Z,86.12
2022-11-17T06:19:56.136Z,86.50
2022-11-17T06:22:26.394Z,86.78
2022-11-17T06:24:56.478Z,86.71
2022-11-17T06:27:25.795Z,88.29
2022-11-17T06:29:55.077Z,88.06
2022-11-17T06:32:23.470Z,88.54
2022-11-17T06:34:55.767Z,87.55
2022-11-17T06:37:24.898Z,87.56
2022-11-17T06:39:52.844Z,87.79
2022-11-17T06:42:42.849Z,90.93
2022-11-17T06:45:11.711Z,88.88
2022-11-17T06:47:39.779Z,90.05
2022-11-17T06:50:08.604Z,89.77
2022-11-17T06:52:36.513Z,90.41
2022-11-17T06:55:04.651Z,89.71
2022-11-17T06:57:33.838Z,88.35
2022-11-17T07:00:01.861Z,89.22
2022-11-17T07:02:32.383Z,88.05
2022-11-17T07:05:00.406Z,85.08
2022-11-17T07:07:28.382Z,85.50
2022-11-17T07:09:56.356Z,86.59
2022-11-17T07:12:24.440Z,85.88
2022-11-17T07:14:53.911Z,85.67
2022-11-17T07:17:21.821Z,86.65
2022-11-17T07:19:49.744Z,85.51
2022-11-17T07:22:17.663Z,86.34
2022-11-17T07:24:45.806Z,86.47
2022-11-17T07:27:13.668Z,88.63
2022-11-17T07:29:41.649Z,87.72
2022-11-17T07:32:13.697Z,88.44
2022-11-17T07:34:42.507Z,100.00
2022-11-17T07:37:10.508Z,94.23
2022-11-17T07:39:38.569Z,91.91
2022-11-17T07:42:06.577Z,91.95
2022-11-17T07:44:34.921Z,91.36
2022-11-17T07:47:03.215Z,89.46
2022-11-17T07:49:32.498Z,90.37
2022-11-17T07:52:00.743Z,89.71
2022-11-17T07:54:29.150Z,92.32
2022-11-17T07:56:57.164Z,92.80
2022-11-17T07:59:25.259Z,96.62
2022-11-17T08:01:54.247Z,95.78
2022-11-17T08:04:22.150Z,96.64
2022-11-17T08:06:51.460Z,94.40
2022-11-17T08:09:19.425Z,91.65
2022-11-17T08:11:47.341Z,100.00
2022-11-17T08:14:15.368Z,93.80
2022-11-17T08:16:43.296Z,91.55
2022-11-17T08:19:11.941Z,91.87
2022-11-17T08:21:41.015Z,91.28
2022-11-17T08:24:12.678Z,91.29
2022-11-17T08:26:41.118Z,91.05
2022-11-17T08:29:09.147Z,90.87
2022-11-17T08:31:37.143Z,90.59
2022-11-17T08:34:05.014Z,90.55
2022-11-17T08:36:33.038Z,90.29
2022-11-17T08:39:00.901Z,90.00
2022-11-17T08:41:30.373Z,89.86
2022-11-17T08:43:58.492Z,89.54
2022-11-17T08:46:27.042Z,90.09
2022-11-17T08:48:57.157Z,89.78
2022-11-17T08:51:27.183Z,89.33
2022-11-17T08:53:55.163Z,89.25
2022-11-17T08:56:23.122Z,89.58
2022-11-17T08:58:52.384Z,89.33
2022-11-17T09:01:20.450Z,89.49
2022-11-17T09:03:49.043Z,88.99
2022-11-17T09:06:18.033Z,89.11
2022-11-17T09:08:47.408Z,88.27
2022-11-17T09:11:16.669Z,87.46
2022-11-17T09:13:45.589Z,87.54
2022-11-17T09:16:16.513Z,87.39
2022-11-17T09:18:45.232Z,87.72
2022-11-17T09:21:15.197Z,87.13
2022-11-17T09:23:43.321Z,87.20
2022-11-17T09:26:13.362Z,87.62
2022-11-17T09:28:42.041Z,87.02
2022-11-17T09:31:11.297Z,87.43
2022-11-17T09:33:41.144Z,86.89
2022-11-17T09:36:09.866Z,86.99
2022-11-17T09:38:38.906Z,86.93
2022-11-17T09:41:26.235Z,86.54
2022-11-17T09:44:07.395Z,86.06
2022-11-17T09:46:48.296Z,86.71
2022-11-17T09:49:29.018Z,87.76
2022-11-17T09:52:01.407Z,88.21
2022-11-17T09:54:39.786Z,88.30
2022-11-17T09:57:20.795Z,87.71
2022-11-17T09:59:54.087Z,87.93
2022-11-17T10:02:22.091Z,88.03
2022-11-17T10:04:51.474Z,88.41
2022-11-17T10:07:20.738Z,88.45
2022-11-17T10:09:51.377Z,88.17
2022-11-17T10:12:21.393Z,88.48
2022-11-17T10:14:50.315Z,88.23
2022-11-17T10:17:18.978Z,88.46
2022-11-17T10:19:47.200Z,88.03
2022-11-17T10:22:24.931Z,88.44
2022-11-17T10:24:57.817Z,88.36
2022-11-17T10:27:28.573Z,89.13
2022-11-17T10:30:01.831Z,89.06
2022-11-17T10:32:31.608Z,89.16
2022-11-17T10:35:15.784Z,88.92
2022-11-17T10:37:55.341Z,89.25
2022-11-17T10:40:26.198Z,89.04
2022-11-17T10:43:01.051Z,90.00
2022-11-17T10:45:29.922Z,89.88
2022-11-17T10:48:18.351Z,89.82
2022-11-17T10:50:52.813Z,89.99
2022-11-17T10:53:29.079Z,90.09
2022-11-17T10:56:02.940Z,81.25
2022-11-17T10:58:31.517Z,77.37
2022-11-17T11:01:02.284Z,78.87
2022-11-17T11:03:31.931Z,89.49
2022-11-17T11:06:06.506Z,78.56
2022-11-17T11:08:47.123Z,78.22
2022-11-17T11:11:25.221Z,80.19
2022-11-17T11:13:58.335Z,80.33
2022-11-17T11:16:30.228Z,80.22
2022-11-17T11:18:58.870Z,80.33
2022-11-17T11:21:44.340Z,79.87
2022-11-17T11:24:20.227Z,80.54
2022-11-17T11:26:58.194Z,79.98
2022-11-17T11:29:34.454Z,80.47
2022-11-17T11:32:18.682Z,80.21
2022-11-17T11:35:03.843Z,82.03
2022-11-17T11:37:38.891Z,82.32
2022-11-17T11:40:16.050Z,82.21
2022-11-17T11:42:51.762Z,81.53
2022-11-17T11:45:24.173Z,81.76
2022-11-17T11:48:05.917Z,81.85
2022-11-17T11:50:41.623Z,81.51
2022-11-17T11:53:16.916Z,81.23
2022-11-17T11:55:50.329Z,82.39
2022-11-17T11:58:21.941Z,82.33
2022-11-17T12:00:52.990Z,81.55
2022-11-17T12:03:31.052Z,83.00
2022-11-17T12:06:25.154Z,82.02
2022-11-17T12:08:59.662Z,81.77
2022-11-17T12:11:46.837Z,82.70
2022-11-17T12:14:18.968Z,82.37
2022-11-17T12:16:48.803Z,82.52
2022-11-17T12:19:50.972Z,82.63
2022-11-17T12:22:59.919Z,82.53
2022-11-17T12:25:30.063Z,81.85
2022-11-17T12:27:59.461Z,81.64
2022-11-17T12:30:51.710Z,81.46
2022-11-17T12:33:19.947Z,82.00
2022-11-17T12:36:30.212Z,81.90
2022-11-17T12:39:00.175Z,82.16
2022-11-17T12:42:07.626Z,81.11
2022-11-17T12:44:50.638Z,81.08
2022-11-17T12:47:21.421Z,80.94
2022-11-17T12:50:04.391Z,81.68
2022-11-17T12:52:45.295Z,81.68
2022-11-17T12:55:18.896Z,81.10
2022-11-17T12:57:51.511Z,81.36
2022-11-17T13:00:24.071Z,80.64
2022-11-17T13:03:02.841Z,81.62
2022-11-17T13:05:31.753Z,81.90
2022-11-17T13:08:11.335Z,81.21
2022-11-17T13:10:39.419Z,81.59
2022-11-17T13:13:11.273Z,81.95
2022-11-17T13:15:42.245Z,81.09
2022-11-17T13:18:17.505Z,81.96
2022-11-17T13:20:49.517Z,81.12
2022-11-17T13:23:21.867Z,81.12
2022-11-17T13:25:50.539Z,81.34
2022-11-17T13:28:27.505Z,80.72
2022-11-17T13:30:56.941Z,81.49
2022-11-17T13:33:26.044Z,81.71
2022-11-17T13:36:17.757Z,81.31
2022-11-17T13:38:50.005Z,80.39
2022-11-17T13:41:19.869Z,80.94
2022-11-17T13:43:49.107Z,81.41
2022-11-17T13:46:18.773Z,81.79
2022-11-17T13:48:48.517Z,80.83
2022-11-17T13:51:29.542Z,81.45
2022-11-17T13:54:00.887Z,82.19
2022-11-17T13:56:35.030Z,81.09
2022-11-17T13:59:06.473Z,81.32
2022-11-17T14:01:36.049Z,81.00
2022-11-17T14:04:20.482Z,81.84
2022-11-17T14:07:00.528Z,81.93
2022-11-17T14:09:30.726Z,82.78
2022-11-17T14:11:59.609Z,81.98
2022-11-17T14:14:35.584Z,81.73
2022-11-17T14:17:20.218Z,80.61
2022-11-17T14:19:49.069Z,80.95
2022-11-17T14:22:30.887Z,81.52
2022-11-17T14:25:00.231Z,80.94
2022-11-17T14:27:41.451Z,80.79
2022-11-17T14:30:14.452Z,81.16
2022-11-17T14:32:43.686Z,81.73
2022-11-17T14:35:13.974Z,81.43
2022-11-17T14:37:42.504Z,81.90
2022-11-17T14:40:14.736Z,81.64
2022-11-17T14:42:42.886Z,85.74
2022-11-17T14:45:14.318Z,86.48
2022-11-17T14:47:44.412Z,86.93
2022-11-17T14:50:14.831Z,86.84
2022-11-17T14:52:43.988Z,86.17
2022-11-17T14:55:12.330Z,87.19
2022-11-17T14:57:40.545Z,86.77
2022-11-17T15:00:14.574Z,85.89
2022-11-17T15:02:47.404Z,85.94
2022-11-17T15:05:15.752Z,85.82
2022-11-17T15:07:43.960Z,86.18
2022-11-17T15:10:12.280Z,85.72
2022-11-17T15:12:40.153Z,85.90
2022-11-17T15:15:08.897Z,86.29
2022-11-17T15:17:36.909Z,86.60
2022-11-17T15:20:07.492Z,86.66
2022-11-17T15:22:35.449Z,86.57
2022-11-17T15:25:03.329Z,85.91
2022-11-17T15:27:31.547Z,86.30
2022-11-17T15:29:59.550Z,86.23
2022-11-17T15:32:27.470Z,86.43
2022-11-17T15:34:55.448Z,86.05
2022-11-17T15:37:24.696Z,86.73
2022-11-17T15:39:52.691Z,86.14
2022-11-17T15:42:20.657Z,85.93
2022-11-17T15:44:48.544Z,85.83
2022-11-17T15:47:16.462Z,86.17
2022-11-17T15:49:46.616Z,86.45
2022-11-17T15:52:14.598Z,86.48
2022-11-17T15:54:43.836Z,87.00
2022-11-17T15:57:11.724Z,87.42
2022-11-17T15:59:39.784Z,87.25
2022-11-17T16:02:09.740Z,88.07
2022-11-17T16:04:37.690Z,87.19
2022-11-17T16:07:05.687Z,87.48
2022-11-17T16:09:34.399Z,87.56
2022-11-17T16:12:03.960Z,87.76
2022-11-17T16:14:31.963Z,87.56
2022-11-17T16:16:59.868Z,87.52
2022-11-17T16:19:27.740Z,88.47
2022-11-17T16:21:55.689Z,88.40
2022-11-17T16:24:23.634Z,87.71
2022-11-17T16:26:51.806Z,88.07
2022-11-17T16:29:21.056Z,89.18
2022-11-17T16:31:49.038Z,88.76
2022-11-17T16:34:17.905Z,89.72
2022-11-17T16:36:46.254Z,90.09
2022-11-17T16:39:16.577Z,89.55
2022-11-17T16:41:46.443Z,89.32
2022-11-17T16:44:17.229Z,89.25
2022-11-17T16:46:48.436Z,92.52
2022-11-17T16:49:18.410Z,89.99
2022-11-17T16:51:50.077Z,89.92
2022-11-17T16:54:18.556Z,90.57
2022-11-17T16:56:46.973Z,90.12
2022-11-17T16:59:15.569Z,89.71
2022-11-17T17:01:43.800Z,89.47
2022-11-17T17:04:13.731Z,89.12
2022-11-17T17:06:43.384Z,89.32
2022-11-17T17:09:13.251Z,89.31
2022-11-17T17:11:41.771Z,89.58
2022-11-17T17:14:12.886Z,89.12
2022-11-17T17:16:41.152Z,89.18
2022-11-17T17:19:10.672Z,89.14
2022-11-17T17:21:41.261Z,88.90
2022-11-17T17:24:10.227Z,89.47
2022-11-17T17:26:39.179Z,89.00
2022-11-17T17:29:07.157Z,89.23
2022-11-17T17:31:37.217Z,89.28
2022-11-17T17:34:06.374Z,88.78
2022-11-17T17:36:36.442Z,88.72
2022-11-17T17:39:06.409Z,89.45
2022-11-17T17:41:38.661Z,89.38
2022-11-17T17:44:08.259Z,89.31
2022-11-17T17:46:38.198Z,89.04
2022-11-17T17:49:06.413Z,89.65
2022-11-17T17:51:38.088Z,89.29
2022-11-17T17:54:07.572Z,89.27
2022-11-17T17:56:35.954Z,88.69
2022-11-17T17:59:03.924Z,89.02
2022-11-17T18:01:33.897Z,88.77
2022-11-17T18:04:04.851Z,89.29
2022-11-17T18:06:37.192Z,89.09
2022-11-17T18:09:07.659Z,88.79
2022-11-17T18:11:36.562Z,88.72
2022-11-17T18:14:05.315Z,88.89
2022-11-17T18:16:34.657Z,88.73
2022-11-17T18:19:04.951Z,88.79
2022-11-17T18:21:33.725Z,88.98
2022-11-17T18:24:03.188Z,89.00
2022-11-17T18:26:34.710Z,88.98
2022-11-17T18:29:04.911Z,88.95
2022-11-17T18:31:35.228Z,88.74
2022-11-17T18:34:06.044Z,88.84
2022-11-17T18:36:34.811Z,88.75
2022-11-17T18:39:03.536Z,88.57
2022-11-17T18:41:33.971Z,88.41
2022-11-17T18:44:02.443Z,88.25
2022-11-17T18:46:32.411Z,88.77
2022-11-17T18:49:01.380Z,88.78
2022-11-17T18:51:32.639Z,88.18
2022-11-17T18:54:02.032Z,88.27
2022-11-17T18:56:34.207Z,88.37
2022-11-17T18:59:02.408Z,88.69
2022-11-17T19:01:31.538Z,88.38
2022-11-17T19:04:01.390Z,88.47
2022-11-17T19:06:29.911Z,88.22
2022-11-17T19:08:59.357Z,88.18
2022-11-17T19:11:28.826Z,87.96
2022-11-17T19:14:02.127Z,89.01
2022-11-17T19:16:31.752Z,88.19
2022-11-17T19:19:00.596Z,88.23
2022-11-17T19:21:29.850Z,87.69
2022-11-17T19:23:59.478Z,88.49
2022-11-17T19:26:28.926Z,88.42
2022-11-17T19:28:59.636Z,88.43
2022-11-17T19:31:28.200Z,88.11
2022-11-17T19:33:56.994Z,88.54
2022-11-17T19:36:26.758Z,88.46
2022-11-17T19:38:56.912Z,88.06
2022-11-17T19:41:26.657Z,88.01
2022-11-17T19:43:55.093Z,88.15
2022-11-17T19:46:25.599Z,88.49
2022-11-17T19:48:54.121Z,87.92
2022-11-17T19:51:24.140Z,87.98
2022-11-17T19:53:53.675Z,88.35
2022-11-17T19:56:22.655Z,88.05
2022-11-17T19:58:51.982Z,88.30
2022-11-17T20:01:21.925Z,87.77
2022-11-17T20:03:51.627Z,87.61
2022-11-17T20:06:21.911Z,87.63
2022-11-17T20:08:50.367Z,87.80
2022-11-17T20:11:20.000Z,88.19
2022-11-17T20:13:48.564Z,88.68
2022-11-17T20:16:19.787Z,87.95
2022-11-17T20:18:52.011Z,87.70
2022-11-17T20:21:20.515Z,87.95
2022-11-17T20:23:48.894Z,88.20
2022-11-17T20:26:18.808Z,87.56
2022-11-17T20:28:47.773Z,88.00
2022-11-17T20:31:19.223Z,87.64
2022-11-17T20:33:48.413Z,88.05
2022-11-17T20:36:19.177Z,87.70
2022-11-17T20:38:50.901Z,88.14
2022-11-17T20:41:20.860Z,88.16
2022-11-17T20:43:49.812Z,87.48
2022-11-17T20:46:18.256Z,87.98
2022-11-17T20:48:46.517Z,88.22
2022-11-17T20:51:17.860Z,87.86
2022-11-17T20:53:45.906Z,87.54
2022-11-17T20:56:15.943Z,87.58
2022-11-17T20:58:44.480Z,87.46
2022-11-17T21:01:14.840Z,87.90
2022-11-17T21:03:43.233Z,87.44
2022-11-17T21:06:11.277Z,87.21
2022-11-17T21:08:42.137Z,87.28
2022-11-17T21:11:33.137Z,87.62
2022-11-17T21:14:01.333Z,87.69
2022-11-17T21:16:29.702Z,87.00
2022-11-17T21:18:57.651Z,87.76
2022-11-17T21:21:25.739Z,87.34
2022-11-17T21:23:56.145Z,87.35
2022-11-17T21:26:24.785Z,86.91
2022-11-17T21:28:53.581Z,86.90
2022-11-17T21:31:23.581Z,87.48
2022-11-17T21:33:54.633Z,86.96
2022-11-17T21:36:24.522Z,86.74
2022-11-17T21:38:53.079Z,88.10
2022-11-17T21:41:23.913Z,87.49
2022-11-17T21:43:53.439Z,87.82
2022-11-17T21:46:22.734Z,88.06
2022-11-17T21:48:51.687Z,87.64
2022-11-17T21:51:21.941Z,87.76
2022-11-17T21:53:53.698Z,88.34
2022-11-17T21:56:26.419Z,88.17
2022-11-17T21:58:55.536Z,87.93
2022-11-17T22:01:23.895Z,88.78
2022-11-17T22:03:52.147Z,88.22
2022-11-17T22:06:21.663Z,88.18
2022-11-17T22:08:50.723Z,88.10
2022-11-17T22:11:35.091Z,88.83
2022-11-17T22:14:10.398Z,88.22
2022-11-17T22:16:39.643Z,88.52
2022-11-17T22:19:08.230Z,88.29
2022-11-17T22:21:37.331Z,88.61
2022-11-17T22:24:06.354Z,88.02
2022-11-17T22:26:35.825Z,88.58
2022-11-17T22:29:03.756Z,88.00
2022-11-17T22:31:33.332Z,88.57
2022-11-17T22:34:01.313Z,88.46
2022-11-17T22:36:29.255Z,89.37
2022-11-17T22:38:57.281Z,88.86
2022-11-17T22:41:25.255Z,88.63
2022-11-17T22:43:54.526Z,88.46
2022-11-17T22:46:24.157Z,89.10
2022-11-17T22:48:53.902Z,89.01
2022-11-17T22:51:36.012Z,88.65
2022-11-17T22:54:04.410Z,89.71
2022-11-17T22:56:33.005Z,89.90
2022-11-17T22:59:00.893Z,89.37
2022-11-17T23:01:28.932Z,89.37
2022-11-17T23:03:58.425Z,89.40
2022-11-17T23:06:27.420Z,89.41
2022-11-17T23:08:56.238Z,88.57
2022-11-17T23:11:39.785Z,88.87
2022-11-17T23:14:10.524Z,89.39
2022-11-17T23:16:39.045Z,88.81
2022-11-17T23:19:09.403Z,88.86
2022-11-17T23:21:37.323Z,89.63
2022-11-17T23:24:05.847Z,89.01
2022-11-17T23:26:33.963Z,89.18
2022-11-17T23:29:02.224Z,88.62
2022-11-17T23:31:30.462Z,88.75
2022-11-17T23:33:58.945Z,89.49
2022-11-17T23:36:28.483Z,88.91
2022-11-17T23:38:57.707Z,89.72
2022-11-17T23:41:25.846Z,88.77
2022-11-17T23:43:55.204Z,89.65
2022-11-17T23:46:25.533Z,88.10
2022-11-17T23:48:55.099Z,89.22
2022-11-17T23:51:25.336Z,88.99
2022-11-17T23:53:55.184Z,89.86
2022-11-17T23:56:23.813Z,88.99
2022-11-17T23:58:52.760Z,89.65
